1FD7 weather

Pga National Heliport
Palm Beach Gardens, Florida, United States

Public forecast

Using degrees Fahrenheit for public forecast. Weather courtesy of forecast.io.

METAR (pilot weather report)

Closest report is Palm Beach International Airport, 9.3 nm (17.3 km) SSE. Retrieved 2019/06/25 12:53 UTC (58 minutes ago):

KPBI 251253Z VRB04KT 3SM FU SCT012 SCT230 30/25 A3007 RMK AO2 SLP180 T03000250 $

TAF (pilot weather forecast)

Closest forecast is Palm Beach International Airport, 9.3 nm (17.3 km) SSE. Retrieved 2019/06/25 12:44 UTC (1 hour ago):

TAF KPBI 251139Z 2512/2612 VRB03KT P6SM SKC FM251600 10008KT P6SM FEW030 SCT060 FM251900 10010KT P6SM SCT035 BKN060 FM260100 VRB03KT P6SM SCT035 SCT050